createdAt,value
2022-10-13T00:00:29.073Z,39.33
2022-10-13T00:02:55.381Z,50.47
2022-10-13T00:05:21.719Z,34.73
2022-10-13T00:07:48.042Z,35.80
2022-10-13T00:10:14.337Z,40.20
2022-10-13T00:12:40.675Z,35.47
2022-10-13T00:15:08.210Z,32.30
2022-10-13T00:17:36.425Z,40.77
2022-10-13T00:20:04.339Z,34.77
2022-10-13T00:22:30.769Z,34.00
2022-10-13T00:24:57.066Z,37.27
2022-10-13T00:27:23.467Z,35.70
2022-10-13T00:29:49.848Z,31.30
2022-10-13T00:32:16.605Z,47.00
2022-10-13T00:34:43.157Z,39.30
2022-10-13T00:37:09.822Z,33.03
2022-10-13T00:39:37.390Z,32.00
2022-10-13T00:42:04.735Z,38.90
2022-10-13T00:44:52.861Z,41.33
2022-10-13T00:47:20.829Z,46.77
2022-10-13T00:49:48.238Z,36.43
2022-10-13T00:52:16.438Z,36.90
2022-10-13T00:54:43.875Z,44.23
2022-10-13T00:57:10.878Z,46.13
2022-10-13T00:59:39.039Z,33.40
2022-10-13T01:02:06.019Z,32.50
2022-10-13T01:04:37.857Z,38.30
2022-10-13T01:07:05.543Z,34.97
2022-10-13T01:09:37.502Z,35.43
2022-10-13T01:12:27.355Z,39.20
2022-10-13T01:15:07.475Z,44.13
2022-10-13T01:17:45.182Z,46.83
2022-10-13T01:20:33.521Z,40.13
2022-10-13T01:23:18.403Z,36.83
2022-10-13T01:26:06.634Z,35.33
2022-10-13T01:28:40.218Z,40.50
2022-10-13T01:31:19.947Z,39.93
2022-10-13T01:33:59.585Z,40.90
2022-10-13T01:36:39.649Z,39.50
2022-10-13T01:39:14.702Z,37.20
2022-10-13T01:41:49.763Z,30.57
2022-10-13T01:44:31.421Z,38.83
2022-10-13T01:47:01.063Z,42.53
2022-10-13T01:49:33.136Z,36.20
2022-10-13T01:52:03.458Z,37.73
2022-10-13T01:54:30.174Z,36.87
2022-10-13T01:56:56.749Z,40.70
2022-10-13T01:59:25.556Z,35.70
2022-10-13T02:02:10.787Z,36.87
2022-10-13T02:05:12.178Z,36.03
2022-10-13T02:08:10.667Z,34.13
2022-10-13T02:10:51.905Z,37.67
2022-10-13T02:13:22.001Z,26.20
2022-10-13T02:15:53.510Z,33.50
2022-10-13T02:18:26.228Z,32.30
2022-10-13T02:20:53.701Z,29.90
2022-10-13T02:23:20.233Z,35.63
2022-10-13T02:25:47.506Z,31.40
2022-10-13T02:28:15.044Z,35.33
2022-10-13T02:30:42.486Z,39.87
2022-10-13T02:33:09.312Z,28.50
2022-10-13T02:35:35.819Z,34.13
2022-10-13T02:38:02.171Z,48.13
2022-10-13T02:40:28.813Z,29.80
2022-10-13T02:42:55.217Z,40.80
2022-10-13T02:45:21.546Z,37.57
2022-10-13T02:47:47.886Z,44.63
2022-10-13T02:50:14.199Z,45.53
2022-10-13T02:52:40.587Z,47.67
2022-10-13T02:55:07.791Z,42.73
2022-10-13T02:57:34.742Z,39.60
2022-10-13T03:00:01.373Z,44.13
2022-10-13T03:02:28.138Z,36.17
2022-10-13T03:04:55.314Z,44.43
2022-10-13T03:07:21.671Z,34.77
2022-10-13T03:09:48.084Z,46.73
2022-10-13T03:12:14.389Z,44.87
2022-10-13T03:14:40.724Z,45.40
2022-10-13T03:17:09.894Z,37.03
2022-10-13T03:19:39.695Z,42.00
2022-10-13T03:22:06.005Z,38.70
2022-10-13T03:24:32.318Z,42.80
2022-10-13T03:26:58.644Z,40.00
2022-10-13T03:29:25.284Z,34.33
2022-10-13T03:31:51.559Z,37.40
2022-10-13T03:34:20.089Z,43.40
2022-10-13T03:36:46.694Z,43.97
2022-10-13T03:39:13.388Z,34.80
2022-10-13T03:41:39.764Z,42.73
2022-10-13T03:44:07.633Z,45.27
2022-10-13T03:46:33.977Z,31.37
2022-10-13T03:49:00.309Z,46.30
2022-10-13T03:51:26.656Z,41.13
2022-10-13T03:53:53.689Z,40.87
2022-10-13T03:56:22.205Z,46.57
2022-10-13T03:58:53.535Z,37.87
2022-10-13T04:01:22.131Z,47.10
2022-10-13T04:03:49.503Z,43.77
2022-10-13T04:06:15.991Z,47.93
2022-10-13T04:08:42.401Z,39.43
2022-10-13T04:11:12.146Z,45.23
2022-10-13T04:13:38.506Z,49.13
2022-10-13T04:16:07.228Z,43.80
2022-10-13T04:18:34.217Z,56.40
2022-10-13T04:21:01.067Z,44.77
2022-10-13T04:23:27.455Z,40.67
2022-10-13T04:25:53.837Z,49.10
2022-10-13T04:28:20.201Z,49.90
2022-10-13T04:30:49.412Z,54.30
2022-10-13T04:33:16.192Z,53.60
2022-10-13T04:35:42.526Z,52.13
2022-10-13T04:38:08.871Z,49.87
2022-10-13T04:40:35.852Z,71.13
2022-10-13T04:43:02.317Z,57.47
2022-10-13T04:45:28.661Z,54.23
2022-10-13T04:47:55.002Z,66.87
2022-10-13T04:50:21.640Z,66.80
2022-10-13T04:52:47.920Z,59.73
2022-10-13T04:55:14.206Z,59.47
2022-10-13T04:57:40.499Z,61.53
2022-10-13T05:00:07.657Z,59.83
2022-10-13T05:02:37.783Z,56.70
2022-10-13T05:05:05.627Z,55.20
2022-10-13T05:07:32.219Z,67.47
2022-10-13T05:09:58.569Z,64.17
2022-10-13T05:12:24.984Z,64.00
2022-10-13T05:14:51.515Z,70.57
2022-10-13T05:17:17.806Z,56.67
2022-10-13T05:19:44.389Z,61.03
2022-10-13T05:22:10.731Z,56.77
2022-10-13T05:24:37.011Z,61.70
2022-10-13T05:27:09.762Z,51.87
2022-10-13T05:29:36.701Z,63.93
2022-10-13T05:32:03.894Z,66.00
2022-10-13T05:34:30.589Z,62.93
2022-10-13T05:36:56.886Z,63.27
2022-10-13T05:39:23.321Z,59.87
2022-10-13T05:41:49.693Z,52.97
2022-10-13T05:44:17.379Z,54.43
2022-10-13T05:46:44.266Z,57.90
2022-10-13T05:49:11.084Z,56.90
2022-10-13T05:51:41.373Z,56.97
2022-10-13T05:54:13.968Z,52.90
2022-10-13T05:56:46.144Z,59.83
2022-10-13T05:59:17.278Z,63.67
2022-10-13T06:01:43.909Z,62.13
2022-10-13T06:04:33.353Z,52.00
2022-10-13T06:06:59.943Z,56.03
2022-10-13T06:09:32.418Z,59.37
2022-10-13T06:11:58.703Z,51.60
2022-10-13T06:14:24.977Z,53.70
2022-10-13T06:16:51.291Z,59.57
2022-10-13T06:19:17.576Z,50.40
2022-10-13T06:21:43.864Z,45.30
2022-10-13T06:24:10.180Z,52.27
2022-10-13T06:26:36.463Z,51.93
2022-10-13T06:29:02.857Z,46.40
2022-10-13T06:31:29.144Z,48.20
2022-10-13T06:33:55.487Z,47.63
2022-10-13T06:36:21.793Z,44.00
2022-10-13T06:38:48.084Z,48.57
2022-10-13T06:41:14.964Z,53.23
2022-10-13T06:43:41.850Z,52.17
2022-10-13T06:46:08.803Z,50.80
2022-10-13T06:48:35.099Z,43.10
2022-10-13T06:51:03.445Z,49.00
2022-10-13T06:53:30.150Z,52.47
2022-10-13T06:56:01.891Z,49.93
2022-10-13T06:58:28.405Z,62.50
2022-10-13T07:00:55.048Z,56.33
2022-10-13T07:03:22.083Z,51.80
2022-10-13T07:05:48.397Z,49.40
2022-10-13T07:08:15.613Z,51.20
2022-10-13T07:10:42.122Z,51.10
2022-10-13T07:13:08.642Z,45.93
2022-10-13T07:15:38.107Z,45.10
2022-10-13T07:18:04.988Z,54.40
2022-10-13T07:20:31.461Z,50.57
2022-10-13T07:22:58.170Z,42.77
2022-10-13T07:25:24.551Z,46.73
2022-10-13T07:27:50.885Z,48.83
2022-10-13T07:30:17.216Z,39.30
2022-10-13T07:32:43.519Z,48.20
2022-10-13T07:35:11.114Z,38.87
2022-10-13T07:37:38.206Z,44.67
2022-10-13T07:40:06.190Z,33.73
2022-10-13T07:42:32.621Z,48.43
2022-10-13T07:44:59.087Z,40.80
2022-10-13T07:47:25.462Z,44.53
2022-10-13T07:49:52.063Z,45.73
2022-10-13T07:52:18.768Z,45.63
2022-10-13T07:54:45.251Z,46.30
2022-10-13T07:57:11.731Z,50.03
2022-10-13T07:59:38.510Z,37.90
2022-10-13T08:02:04.815Z,46.93
2022-10-13T08:04:32.715Z,54.03
2022-10-13T08:06:59.003Z,52.47
2022-10-13T08:09:26.325Z,43.37
2022-10-13T08:11:54.685Z,42.43
2022-10-13T08:14:24.066Z,53.03
2022-10-13T08:16:52.981Z,56.40
2022-10-13T08:19:21.956Z,45.53
2022-10-13T08:22:09.094Z,53.00
2022-10-13T08:24:35.238Z,48.00
2022-10-13T08:27:01.742Z,48.47
2022-10-13T08:29:28.215Z,44.60
2022-10-13T08:31:55.221Z,51.90
2022-10-13T08:34:25.522Z,52.17
2022-10-13T08:36:54.291Z,56.37
2022-10-13T08:39:22.375Z,51.47
2022-10-13T08:41:49.204Z,46.23
2022-10-13T08:45:06.357Z,45.70
2022-10-13T08:47:24.257Z,52.17
2022-10-13T08:49:50.855Z,50.40
2022-10-13T08:52:26.958Z,39.03
2022-10-13T08:54:54.990Z,47.37
2022-10-13T08:57:22.455Z,37.10
2022-10-13T08:59:49.386Z,49.23
2022-10-13T09:02:25.279Z,47.83
2022-10-13T09:04:53.733Z,48.00
2022-10-13T09:07:34.769Z,43.57
2022-10-13T09:10:01.065Z,52.43
2022-10-13T09:12:27.785Z,49.77
2022-10-13T09:15:05.135Z,47.70
2022-10-13T09:17:32.873Z,46.63
2022-10-13T09:20:05.811Z,41.40
2022-10-13T09:22:36.465Z,49.40
2022-10-13T09:25:10.010Z,44.83
2022-10-13T09:28:10.036Z,41.53
2022-10-13T09:30:41.071Z,50.50
2022-10-13T09:33:13.487Z,37.97
2022-10-13T09:35:45.564Z,46.67
2022-10-13T09:38:16.366Z,41.70
2022-10-13T09:43:27.703Z,46.93
2022-10-13T09:45:55.058Z,57.37
2022-10-13T09:48:30.025Z,43.50
2022-10-13T09:50:57.962Z,55.50
2022-10-13T09:53:32.641Z,45.03
2022-10-13T09:56:23.122Z,55.33
2022-10-13T09:59:02.815Z,43.30
2022-10-13T10:01:34.861Z,48.00
2022-10-13T10:04:06.396Z,46.50
2022-10-13T10:06:33.833Z,45.50
2022-10-13T10:09:33.268Z,35.70
2022-10-13T10:12:01.719Z,45.43
2022-10-13T10:14:31.154Z,44.93
2022-10-13T10:17:04.138Z,44.43
2022-10-13T10:19:55.392Z,39.13
2022-10-13T10:22:42.348Z,35.23
2022-10-13T10:25:25.837Z,42.07
2022-10-13T10:28:20.127Z,37.13
2022-10-13T10:30:53.793Z,40.47
2022-10-13T10:33:26.189Z,48.10
2022-10-13T10:36:02.502Z,42.90
2022-10-13T10:38:44.230Z,42.47
2022-10-13T10:41:29.347Z,39.13
2022-10-13T10:44:04.100Z,38.07
2022-10-13T10:46:45.406Z,45.40
2022-10-13T10:49:30.962Z,39.70
2022-10-13T10:51:59.884Z,36.67
2022-10-13T10:54:51.581Z,42.37
2022-10-13T10:57:29.240Z,51.33
2022-10-13T11:00:09.378Z,37.47
2022-10-13T11:03:07.741Z,50.30
2022-10-13T11:05:56.980Z,43.00
2022-10-13T11:08:28.646Z,43.97
2022-10-13T11:11:24.772Z,39.90
2022-10-13T11:13:57.576Z,42.60
2022-10-13T11:16:31.146Z,46.67
2022-10-13T11:19:08.278Z,41.30
2022-10-13T11:21:52.621Z,42.20
2022-10-13T11:24:34.359Z,37.13
2022-10-13T11:27:15.947Z,35.50
2022-10-13T11:29:57.794Z,54.83
2022-10-13T11:32:27.302Z,36.47
2022-10-13T11:35:02.851Z,36.03
2022-10-13T11:38:05.731Z,37.73
2022-10-13T11:40:57.554Z,38.80
2022-10-13T11:43:35.442Z,38.00
2022-10-13T11:46:58.687Z,37.77
2022-10-13T11:49:52.735Z,43.60
2022-10-13T11:52:31.407Z,34.27
2022-10-13T11:55:15.012Z,45.73
2022-10-13T11:57:41.347Z,36.03
2022-10-13T12:00:16.537Z,31.30
2022-10-13T12:02:52.129Z,40.10
2022-10-13T12:05:25.155Z,30.60
2022-10-13T12:07:54.935Z,33.23
2022-10-13T12:10:29.583Z,42.20
2022-10-13T12:12:56.305Z,45.80
2022-10-13T12:15:35.068Z,47.13
2022-10-13T12:18:02.383Z,31.40
2022-10-13T12:20:31.765Z,33.13
2022-10-13T12:22:58.435Z,35.93
2022-10-13T12:25:28.727Z,31.33
2022-10-13T12:27:57.694Z,31.40
2022-10-13T12:30:26.938Z,35.90
2022-10-13T12:32:55.920Z,33.60
2022-10-13T12:35:27.316Z,36.67
2022-10-13T12:37:55.587Z,33.47
2022-10-13T12:40:22.869Z,31.33
2022-10-13T12:42:50.135Z,42.23
2022-10-13T12:45:19.920Z,37.07
2022-10-13T12:47:49.162Z,35.73
2022-10-13T12:50:27.910Z,36.77
2022-10-13T12:53:09.927Z,38.20
2022-10-13T12:55:45.690Z,32.30
2022-10-13T12:58:48.970Z,33.07
2022-10-13T13:01:15.252Z,36.20
2022-10-13T13:03:43.418Z,32.57
2022-10-13T13:06:15.845Z,37.80
2022-10-13T13:08:43.229Z,37.90
2022-10-13T13:11:32.688Z,25.97
2022-10-13T13:14:33.434Z,32.23
2022-10-13T13:17:05.799Z,39.43
2022-10-13T13:19:33.781Z,28.03
2022-10-13T13:22:00.297Z,24.77
2022-10-13T13:24:36.116Z,26.77
2022-10-13T13:27:25.440Z,27.53
2022-10-13T13:29:55.586Z,31.53
2022-10-13T13:32:23.674Z,24.20
2022-10-13T13:34:50.264Z,28.53
2022-10-13T13:37:27.508Z,22.77
2022-10-13T13:39:54.730Z,28.00
2022-10-13T13:42:21.273Z,37.20
2022-10-13T13:44:48.235Z,34.90
2022-10-13T13:47:20.527Z,30.10
2022-10-13T13:49:49.421Z,31.93
2022-10-13T13:52:16.838Z,28.43
2022-10-13T13:54:44.638Z,31.60
2022-10-13T13:57:12.819Z,33.43
2022-10-13T13:59:39.853Z,22.87
2022-10-13T14:02:12.790Z,27.27
2022-10-13T14:04:39.377Z,24.77
2022-10-13T14:07:05.654Z,34.90
2022-10-13T14:09:31.950Z,38.37
2022-10-13T14:11:58.783Z,29.67
2022-10-13T14:14:25.242Z,30.57
2022-10-13T14:16:52.696Z,30.77
2022-10-13T14:19:18.986Z,33.60
2022-10-13T14:21:45.871Z,32.53
2022-10-13T14:24:12.176Z,26.77
2022-10-13T14:26:38.488Z,30.93
2022-10-13T14:29:04.778Z,32.87
2022-10-13T14:31:32.411Z,25.93
2022-10-13T14:33:58.717Z,36.50
2022-10-13T14:36:25.335Z,34.53
2022-10-13T14:38:51.625Z,25.13
2022-10-13T14:41:18.202Z,19.07
2022-10-13T14:43:44.623Z,28.97
2022-10-13T14:46:11.241Z,26.37
2022-10-13T14:48:37.839Z,35.17
2022-10-13T14:51:09.156Z,19.63
2022-10-13T14:53:36.807Z,29.33
2022-10-13T14:56:03.683Z,22.40
2022-10-13T14:58:30.646Z,27.43
2022-10-13T15:00:57.004Z,27.13
2022-10-13T15:03:24.009Z,27.77
2022-10-13T15:05:50.415Z,29.40
2022-10-13T15:08:16.725Z,25.27
2022-10-13T15:10:44.973Z,22.47
2022-10-13T15:13:11.657Z,28.30
2022-10-13T15:15:38.516Z,34.00
2022-10-13T15:18:04.967Z,27.07
2022-10-13T15:20:31.469Z,24.67
2022-10-13T15:22:57.878Z,27.90
2022-10-13T15:25:24.152Z,31.33
2022-10-13T15:27:50.456Z,28.00
2022-10-13T15:30:16.739Z,29.03
2022-10-13T15:32:43.050Z,29.97
2022-10-13T15:35:09.563Z,29.10
2022-10-13T15:37:35.855Z,25.57
2022-10-13T15:40:02.175Z,22.77
2022-10-13T15:42:28.469Z,26.37
2022-10-13T15:45:09.293Z,34.87
2022-10-13T15:47:36.544Z,27.10
2022-10-13T15:50:03.575Z,26.07
2022-10-13T15:52:34.693Z,15.13
2022-10-13T15:55:01.417Z,18.63
2022-10-13T15:57:27.831Z,27.30
2022-10-13T15:59:54.098Z,22.13
2022-10-13T16:02:20.592Z,16.70
2022-10-13T16:04:46.989Z,29.50
2022-10-13T16:07:13.481Z,19.53
2022-10-13T16:09:39.759Z,40.23
2022-10-13T16:12:06.221Z,18.70
2022-10-13T16:14:32.583Z,14.03
2022-10-13T16:17:01.680Z,13.80
2022-10-13T16:19:28.111Z,22.80
2022-10-13T16:21:54.406Z,20.13
2022-10-13T16:24:20.849Z,29.17
2022-10-13T16:26:47.157Z,18.43
2022-10-13T16:29:13.492Z,23.23
2022-10-13T16:31:39.837Z,21.13
2022-10-13T16:34:06.139Z,19.43
2022-10-13T16:36:32.543Z,23.57
2022-10-13T16:38:58.991Z,20.70
2022-10-13T16:41:25.667Z,16.60
2022-10-13T16:43:52.000Z,23.00
2022-10-13T16:46:20.044Z,28.30
2022-10-13T16:48:47.635Z,14.90
2022-10-13T16:51:23.087Z,16.23
2022-10-13T16:53:54.415Z,22.50
2022-10-13T16:56:22.625Z,17.43
2022-10-13T16:59:09.972Z,28.20
2022-10-13T17:01:36.992Z,17.70
2022-10-13T17:04:04.261Z,21.23
2022-10-13T17:06:30.588Z,18.83
2022-10-13T17:08:59.216Z,27.73
2022-10-13T17:11:28.709Z,18.53
2022-10-13T17:13:56.513Z,16.77
2022-10-13T17:16:23.175Z,21.27
2022-10-13T17:18:49.659Z,21.80
2022-10-13T17:21:17.300Z,26.93
2022-10-13T17:23:48.376Z,23.53
2022-10-13T17:26:15.890Z,23.43
2022-10-13T17:28:42.912Z,22.93
2022-10-13T17:31:13.457Z,22.47
2022-10-13T17:33:42.030Z,19.13
2022-10-13T17:36:34.289Z,21.70
2022-10-13T17:39:07.570Z,22.73
2022-10-13T17:41:34.315Z,24.43
2022-10-13T17:44:00.816Z,24.83
2022-10-13T17:46:38.668Z,19.93
2022-10-13T17:49:09.948Z,22.23
2022-10-13T17:51:36.481Z,18.33
2022-10-13T17:54:03.686Z,17.40
2022-10-13T17:56:30.046Z,22.70
2022-10-13T17:58:56.746Z,15.20
2022-10-13T18:01:34.438Z,15.23
2022-10-13T18:04:06.812Z,13.43
2022-10-13T18:06:38.569Z,18.00
2022-10-13T18:09:10.525Z,18.90
2022-10-13T18:11:37.895Z,14.53
2022-10-13T18:14:05.242Z,19.63
2022-10-13T18:16:31.974Z,19.03
2022-10-13T18:18:58.382Z,16.63
2022-10-13T18:21:27.655Z,25.40
2022-10-13T18:24:01.796Z,17.40
2022-10-13T18:26:37.280Z,22.13
2022-10-13T18:29:05.899Z,19.17
2022-10-13T18:31:34.326Z,27.00
2022-10-13T18:34:03.664Z,23.67
2022-10-13T18:36:35.953Z,17.53
2022-10-13T18:39:07.294Z,19.40
2022-10-13T18:41:35.484Z,16.53
2022-10-13T18:44:03.777Z,13.90
2022-10-13T18:46:31.451Z,14.50
2022-10-13T18:48:58.234Z,21.43
2022-10-13T18:51:24.940Z,16.53
2022-10-13T18:53:51.800Z,21.90
2022-10-13T18:56:20.303Z,19.40
2022-10-13T18:58:47.684Z,15.70
2022-10-13T19:01:18.147Z,16.30
2022-10-13T19:03:44.949Z,17.70
2022-10-13T19:06:13.189Z,16.37
2022-10-13T19:08:39.661Z,17.13
2022-10-13T19:11:20.773Z,15.03
2022-10-13T19:13:48.306Z,16.30
2022-10-13T19:16:17.169Z,15.60
2022-10-13T19:18:44.219Z,12.83
2022-10-13T19:21:11.793Z,15.57
2022-10-13T19:23:39.340Z,19.03
2022-10-13T19:26:15.268Z,14.63
2022-10-13T19:28:42.577Z,18.43
2022-10-13T19:31:18.081Z,23.50
2022-10-13T19:33:46.929Z,18.70
2022-10-13T19:36:23.072Z,22.33
2022-10-13T19:38:50.169Z,15.77
2022-10-13T19:41:16.613Z,19.87
2022-10-13T19:43:42.908Z,27.63
2022-10-13T19:46:10.215Z,16.23
2022-10-13T19:48:36.733Z,19.03
2022-10-13T19:51:07.865Z,25.37
2022-10-13T19:53:35.328Z,18.90
2022-10-13T19:56:01.668Z,17.73
2022-10-13T19:58:28.166Z,29.73
2022-10-13T20:00:54.608Z,24.33
2022-10-13T20:03:21.083Z,21.90
2022-10-13T20:05:47.390Z,21.37
2022-10-13T20:08:13.760Z,22.20
2022-10-13T20:10:42.285Z,25.67
2022-10-13T20:13:10.010Z,22.00
2022-10-13T20:15:41.856Z,18.23
2022-10-13T20:18:10.001Z,25.93
2022-10-13T20:20:36.915Z,21.00
2022-10-13T20:23:03.431Z,19.30
2022-10-13T20:25:29.766Z,19.90
2022-10-13T20:27:56.287Z,24.10
2022-10-13T20:30:22.602Z,21.50
2022-10-13T20:32:48.953Z,20.80
2022-10-13T20:35:15.288Z,18.30
2022-10-13T20:37:41.632Z,20.40
2022-10-13T20:40:08.420Z,22.63
2022-10-13T20:42:34.807Z,22.23
2022-10-13T20:45:01.111Z,20.03
2022-10-13T20:47:27.422Z,15.00
2022-10-13T20:49:53.829Z,17.83
2022-10-13T20:52:20.254Z,20.23
2022-10-13T20:54:46.570Z,18.57
2022-10-13T20:57:12.876Z,19.60
2022-10-13T20:59:39.191Z,19.63
2022-10-13T21:02:05.491Z,23.10
2022-10-13T21:04:31.916Z,25.60
2022-10-13T21:06:58.273Z,26.20
2022-10-13T21:09:24.618Z,21.77
2022-10-13T21:11:50.923Z,23.33
2022-10-13T21:14:17.211Z,21.67
2022-10-13T21:16:43.498Z,24.50
2022-10-13T21:19:09.973Z,18.37
2022-10-13T21:21:36.534Z,26.43
2022-10-13T21:24:05.447Z,22.73
2022-10-13T21:26:33.032Z,23.67
2022-10-13T21:29:00.593Z,22.53
2022-10-13T21:31:27.935Z,21.13
2022-10-13T21:33:54.949Z,23.70
2022-10-13T21:36:24.418Z,23.97
2022-10-13T21:38:54.093Z,19.80
2022-10-13T21:41:21.183Z,21.70
2022-10-13T21:43:47.545Z,23.67
2022-10-13T21:46:15.232Z,26.00
2022-10-13T21:48:41.819Z,20.67
2022-10-13T21:51:19.518Z,32.07
2022-10-13T21:54:09.991Z,21.57
2022-10-13T21:56:36.692Z,29.63
2022-10-13T21:59:03.411Z,22.23
2022-10-13T22:01:30.467Z,25.93
2022-10-13T22:03:58.760Z,28.97
2022-10-13T22:06:26.523Z,27.50
2022-10-13T22:08:55.263Z,24.70
2022-10-13T22:11:24.228Z,28.67
2022-10-13T22:13:51.184Z,29.93
2022-10-13T22:16:23.549Z,28.23
2022-10-13T22:18:55.514Z,23.27
2022-10-13T22:21:27.086Z,25.20
2022-10-13T22:24:06.266Z,25.90
2022-10-13T22:26:35.643Z,21.97
2022-10-13T22:29:03.856Z,25.57
2022-10-13T22:31:32.523Z,31.10
2022-10-13T22:34:00.092Z,25.63
2022-10-13T22:36:27.212Z,27.27
2022-10-13T22:38:56.015Z,28.60
2022-10-13T22:41:23.057Z,21.83
2022-10-13T22:43:54.167Z,22.77
2022-10-13T22:46:23.925Z,24.53
2022-10-13T22:48:50.443Z,24.03
2022-10-13T22:51:19.649Z,23.13
2022-10-13T22:53:46.870Z,24.83
2022-10-13T22:56:16.525Z,27.90
2022-10-13T22:58:42.956Z,26.30
2022-10-13T23:01:12.178Z,20.53
2022-10-13T23:03:39.420Z,22.93
2022-10-13T23:06:07.606Z,22.73
2022-10-13T23:08:34.959Z,20.90
2022-10-13T23:11:01.256Z,24.40
2022-10-13T23:13:27.562Z,25.77
2022-10-13T23:15:53.854Z,27.20
2022-10-13T23:18:20.128Z,26.70
2022-10-13T23:20:46.422Z,27.50
2022-10-13T23:23:12.731Z,22.53
2022-10-13T23:25:39.006Z,24.20
2022-10-13T23:28:05.291Z,32.60
2022-10-13T23:30:31.613Z,26.67
2022-10-13T23:32:57.914Z,21.63
2022-10-13T23:35:24.273Z,27.13
2022-10-13T23:37:52.440Z,29.97
2022-10-13T23:40:18.909Z,31.87
2022-10-13T23:42:45.409Z,23.30
2022-10-13T23:45:11.895Z,31.90
2022-10-13T23:47:38.206Z,21.20
2022-10-13T23:50:05.057Z,32.43
2022-10-13T23:52:31.349Z,28.27
2022-10-13T23:54:57.626Z,22.60
2022-10-13T23:57:24.184Z,30.97
2022-10-13T23:59:50.550Z,20.60
